Startpagina
METAR-TAF:

METAR-TAF

Vliegvelden :

Cairns, Australië

Cairns Airport

breedte: 16-53S, lengte: 145-45E, hoogte: 3 m

Actueel weer

Dit bericht is 30 minuten geleden gemaakt, om 01:30 UTC
Wind 12 kt uit het noordoosten
Temperatuur 28°C
Vochtigheid 51%
Druk 1017 hPa
Zicht 10 km of meer
Weinig wolken op 2800 ft
Weinig wolken op 3000 ft

METAR: YBCS 230130Z 11011KT 9999 FEW028 28/17 Q1017 FM0230 05012KT 9999 FEW030

Tijdstip: 12:00 (02:00 UTC)

Verwachting

Dit bericht is 2 uur en het 54 minuten geleden gemaakt, om 23:06 UTC
Verwachting geldig van 23 om 00 UTC tot 23 om 24 UTC
Wind 8 kt uit het zuiden
Zicht 10 km of meer
Weinig wolken op 2500 ft
Weinig wolken op 4000 ft
Van 23 om 0200 UTC
Wind 12 kt uit het noordoosten
Zicht 10 km of meer
Weinig wolken op 3000 ft
Van 23 om 0800 UTC
Wind 8 kt uit het zuiden
Zicht 10 km of meer
Weinig wolken op 2500 ft
Weinig wolken op 4000 ft

TAF: YBCS 222306Z 2300/2324 17008KT 9999 FEW025 FEW040 FM230200 05012KT 9999 FEW030 FM230800 17008KT 9999 FEW025 FEW040

Waarnemingen en weersverwachtingen van meer dan 4000 vliegvelden (METAR en TAF).

De beschikbare stations zijn de gele en rode punten op de kaart.

Ga met uw muis naar het station om de naam te zien.

Klik dan om waarnemingen en weersverwachtingen te zien.

kaart wijzigen: klik op de groene knoppen met een zwart kruis om in te zoomen, op de groene knop met een streepje om uit te zoomen of op de groene pijlen voor aangrenzende kaarten.


METAR-TAF: